LTFE/BJV METAR and TAF weather

Enter ICAO airport designator
Station Type Date Time Source
LTFE METAR 2020/07/12 19:20 UTC NOAA

LTFE 121920Z VRB02KT CAVOK 27/20 Q1005 NOSIG


Station Type Date Time Source
LTFE Decoded METAR 2020/07/12 19:20 UTC NOAA

Bodrum Milas Airport, Turkey (LTFE) 37-14-53N 027-40-55E
Jul 12, 2020 - 03:20 PM EDT / 2020.07.12 1920 UTC
Wind: Variable at 2 MPH (2 KT):0
Visibility: greater than 7 mile(s):0
Temperature: 80 F (27 C)
Dew Point: 68 F (20 C)
Relative Humidity: 65%
Pressure (altimeter): 29.68 in. Hg (1005 hPa)
ob: LTFE 121920Z VRB02KT CAVOK 27/20 Q1005 NOSIG
cycle: 19

Station Type Date Time Source
LTFE TAF 2020/07/12 18:03 UTC NOAA

TAF LTFE 121640Z 1218/1318 VRB02KT CAVOK
BECMG 1308/1310 27012KT
BECMG 1311/1314 35016KT

Example: see airport list